createdAt,value
2018-06-22T00:01:45.549Z,40.23
2018-06-22T00:03:48.213Z,39.17
2018-06-22T00:05:50.928Z,41.40
2018-06-22T00:07:53.765Z,40.90
2018-06-22T00:09:56.428Z,40.40
2018-06-22T00:11:59.172Z,42.33
2018-06-22T00:14:01.900Z,39.80
2018-06-22T00:16:04.664Z,39.83
2018-06-22T00:18:07.811Z,42.80
2018-06-22T00:20:10.619Z,40.43
2018-06-22T00:22:13.175Z,40.33
2018-06-22T00:24:15.854Z,37.93
2018-06-22T00:26:18.346Z,39.73
2018-06-22T00:28:22.578Z,40.70
2018-06-22T00:30:25.377Z,37.47
2018-06-22T00:32:28.050Z,38.83
2018-06-22T00:34:30.855Z,37.30
2018-06-22T00:36:33.676Z,37.23
2018-06-22T00:38:36.369Z,35.90
2018-06-22T00:40:38.923Z,38.07
2018-06-22T00:42:41.917Z,40.30
2018-06-22T00:44:44.729Z,39.93
2018-06-22T00:46:47.276Z,40.30
2018-06-22T00:48:51.012Z,39.43
2018-06-22T00:50:53.782Z,38.77
2018-06-22T00:52:56.768Z,36.53
2018-06-22T00:55:00.504Z,38.20
2018-06-22T00:57:05.025Z,36.70
2018-06-22T00:59:08.156Z,36.93
2018-06-22T01:01:11.010Z,36.77
2018-06-22T01:03:13.781Z,35.50
2018-06-22T01:05:16.493Z,35.10
2018-06-22T01:07:19.176Z,32.20
2018-06-22T01:09:22.379Z,31.50
2018-06-22T01:11:25.215Z,29.70
2018-06-22T01:13:28.163Z,28.77
2018-06-22T01:15:30.922Z,29.70
2018-06-22T01:17:34.125Z,29.10
2018-06-22T01:19:37.233Z,26.97
2018-06-22T01:21:40.417Z,26.20
2018-06-22T01:23:44.243Z,26.20
2018-06-22T01:25:47.052Z,27.93
2018-06-22T01:27:50.074Z,25.47
2018-06-22T01:29:53.070Z,24.57
2018-06-22T01:31:56.089Z,24.57
2018-06-22T01:33:58.857Z,24.37
2018-06-22T01:36:01.683Z,24.27
2018-06-22T01:38:04.466Z,23.00
2018-06-22T01:40:07.651Z,23.20
2018-06-22T01:42:10.468Z,19.77
2018-06-22T01:44:13.238Z,20.10
2018-06-22T01:46:16.574Z,19.53
2018-06-22T01:48:19.407Z,19.33
2018-06-22T01:50:22.266Z,18.73
2018-06-22T01:52:25.236Z,19.47
2018-06-22T01:54:28.176Z,18.07
2018-06-22T01:56:30.855Z,16.83
2018-06-22T01:58:34.143Z,16.93
2018-06-22T02:00:36.813Z,17.03
2018-06-22T02:02:39.590Z,17.53
2018-06-22T02:04:42.597Z,86.90
2018-06-22T02:06:45.751Z,150.53
2018-06-22T02:08:48.572Z,63.93
2018-06-22T02:10:51.433Z,50.73
2018-06-22T02:12:54.066Z,44.67
2018-06-22T02:14:57.122Z,38.10
2018-06-22T02:17:00.100Z,36.63
2018-06-22T02:19:03.130Z,37.87
2018-06-22T02:21:05.730Z,35.00
2018-06-22T02:23:08.685Z,34.50
2018-06-22T02:25:11.431Z,31.40
2018-06-22T02:27:14.380Z,30.37
2018-06-22T02:29:17.170Z,30.07
2018-06-22T02:31:19.984Z,29.57
2018-06-22T02:33:23.032Z,28.37
2018-06-22T02:35:25.813Z,27.17
2018-06-22T02:37:28.959Z,27.73
2018-06-22T02:39:31.931Z,27.37
2018-06-22T02:41:34.685Z,26.10
2018-06-22T02:43:37.770Z,25.70
2018-06-22T02:45:40.676Z,24.93
2018-06-22T02:47:43.324Z,22.80
2018-06-22T02:49:46.159Z,22.33
2018-06-22T02:51:49.273Z,21.13
2018-06-22T02:53:51.903Z,20.37
2018-06-22T02:55:54.483Z,19.30
2018-06-22T02:57:57.427Z,19.10
2018-06-22T03:00:00.067Z,20.20
2018-06-22T03:02:03.059Z,19.60
2018-06-22T03:04:06.310Z,18.33
2018-06-22T03:06:09.590Z,18.07
2018-06-22T03:08:14.041Z,17.90
2018-06-22T03:10:16.871Z,16.23
2018-06-22T03:12:19.741Z,18.17
2018-06-22T03:14:22.758Z,17.30
2018-06-22T03:16:25.585Z,16.37
2018-06-22T03:18:28.776Z,18.07
2018-06-22T03:20:31.404Z,16.20
2018-06-22T03:22:34.118Z,17.30
2018-06-22T03:24:36.763Z,15.70
2018-06-22T03:26:40.608Z,16.57
2018-06-22T03:28:43.449Z,16.90
2018-06-22T03:30:46.079Z,13.90
2018-06-22T03:32:48.795Z,14.30
2018-06-22T03:34:51.771Z,15.50
2018-06-22T03:36:56.010Z,16.60
2018-06-22T03:38:58.793Z,14.80
2018-06-22T03:41:01.454Z,16.17
2018-06-22T03:43:04.248Z,15.17
2018-06-22T03:45:07.211Z,14.80
2018-06-22T03:47:09.817Z,14.67
2018-06-22T03:49:12.427Z,13.93
2018-06-22T03:51:15.403Z,13.20
2018-06-22T03:53:18.243Z,14.40
2018-06-22T03:55:20.815Z,14.57
2018-06-22T03:57:23.442Z,12.40
2018-06-22T03:59:26.298Z,11.53
2018-06-22T04:01:29.506Z,10.73
2018-06-22T04:03:32.441Z,11.13
2018-06-22T04:05:35.029Z,10.43
2018-06-22T04:07:37.666Z,10.57
2018-06-22T04:09:40.487Z,10.40
2018-06-22T04:11:43.132Z,11.13
2018-06-22T04:13:45.904Z,10.43
2018-06-22T04:15:48.803Z,11.00
2018-06-22T04:17:51.478Z,9.53
2018-06-22T04:19:54.036Z,9.53
2018-06-22T04:21:57.557Z,9.60
2018-06-22T04:24:00.509Z,10.13
2018-06-22T04:26:03.413Z,9.63
2018-06-22T04:28:06.280Z,10.00
2018-06-22T04:30:10.159Z,9.60
2018-06-22T04:32:12.911Z,9.50
2018-06-22T04:34:16.123Z,9.73
2018-06-22T04:36:19.862Z,10.03
2018-06-22T04:38:22.658Z,10.77
2018-06-22T04:40:25.142Z,10.47
2018-06-22T04:42:27.901Z,9.93
2018-06-22T04:44:30.472Z,9.77
2018-06-22T04:46:33.052Z,10.40
2018-06-22T04:48:35.837Z,9.90
2018-06-22T04:50:38.705Z,9.97
2018-06-22T04:52:41.380Z,9.60
2018-06-22T04:54:43.934Z,9.43
2018-06-22T04:56:46.670Z,8.83
2018-06-22T04:58:49.432Z,8.10
2018-06-22T05:00:52.291Z,10.00
2018-06-22T05:02:55.247Z,9.30
2018-06-22T05:04:57.925Z,8.67
2018-06-22T05:07:00.592Z,9.40
2018-06-22T05:09:03.352Z,10.23
2018-06-22T05:11:06.122Z,9.30
2018-06-22T05:13:08.730Z,9.13
2018-06-22T05:15:11.319Z,8.53
2018-06-22T05:17:14.301Z,8.07
2018-06-22T05:19:17.129Z,8.13
2018-06-22T05:21:20.029Z,9.23
2018-06-22T05:23:22.629Z,9.90
2018-06-22T05:25:25.350Z,9.50
2018-06-22T05:27:28.275Z,8.60
2018-06-22T05:29:31.197Z,8.97
2018-06-22T05:31:33.755Z,9.20
2018-06-22T05:33:36.480Z,7.83
2018-06-22T05:35:39.361Z,7.57
2018-06-22T05:37:41.902Z,8.40
2018-06-22T05:39:44.669Z,8.73
2018-06-22T05:41:47.702Z,9.23
2018-06-22T05:43:50.553Z,7.80
2018-06-22T05:45:53.483Z,8.60
2018-06-22T05:47:56.488Z,8.20
2018-06-22T05:49:59.264Z,8.10
2018-06-22T05:52:02.009Z,9.60
2018-06-22T05:54:04.806Z,9.47
2018-06-22T05:56:07.665Z,8.40
2018-06-22T05:58:10.634Z,8.73
2018-06-22T06:00:13.460Z,9.17
2018-06-22T06:02:16.337Z,9.10
2018-06-22T06:04:19.124Z,10.07
2018-06-22T06:06:21.726Z,9.10
2018-06-22T06:08:24.308Z,8.90
2018-06-22T06:10:26.904Z,9.00
2018-06-22T06:12:30.479Z,9.13
2018-06-22T06:14:33.323Z,9.83
2018-06-22T06:16:36.056Z,9.20
2018-06-22T06:18:38.850Z,8.47
2018-06-22T06:20:41.580Z,7.90
2018-06-22T06:22:44.504Z,9.80
2018-06-22T06:24:47.256Z,9.87
2018-06-22T06:26:50.266Z,9.50
2018-06-22T06:28:52.908Z,9.90
2018-06-22T06:30:55.783Z,9.27
2018-06-22T06:32:58.564Z,8.30
2018-06-22T06:35:01.615Z,9.27
2018-06-22T06:37:04.317Z,9.13
2018-06-22T06:39:07.306Z,9.50
2018-06-22T06:41:10.141Z,8.40
2018-06-22T06:43:12.760Z,9.73
2018-06-22T06:45:15.515Z,7.93
2018-06-22T06:47:18.116Z,7.90
2018-06-22T06:49:20.668Z,7.80
2018-06-22T06:51:23.217Z,9.47
2018-06-22T06:53:25.848Z,8.50
2018-06-22T06:55:28.428Z,8.50
2018-06-22T06:57:31.155Z,9.00
2018-06-22T06:59:34.071Z,9.40
2018-06-22T07:01:36.776Z,7.97
2018-06-22T07:03:39.410Z,8.80
2018-06-22T07:05:42.124Z,8.30
2018-06-22T07:07:44.835Z,9.43
2018-06-22T07:09:47.528Z,8.90
2018-06-22T07:11:50.054Z,8.93
2018-06-22T07:13:52.595Z,7.90
2018-06-22T07:15:55.296Z,8.87
2018-06-22T07:17:57.953Z,8.43
2018-06-22T07:20:00.620Z,8.73
2018-06-22T07:22:03.295Z,8.90
2018-06-22T07:24:05.846Z,8.90
2018-06-22T07:26:08.432Z,9.27
2018-06-22T07:28:11.072Z,9.87
2018-06-22T07:30:14.830Z,9.13
2018-06-22T07:32:17.394Z,8.17
2018-06-22T07:34:20.072Z,8.17
2018-06-22T07:36:23.820Z,8.13
2018-06-22T07:38:26.524Z,8.80
2018-06-22T07:40:29.111Z,8.70
2018-06-22T07:42:31.677Z,9.47
2018-06-22T07:44:34.379Z,9.53
2018-06-22T07:46:37.048Z,9.37
2018-06-22T07:48:39.668Z,8.70
2018-06-22T07:50:42.764Z,9.00
2018-06-22T07:52:45.331Z,8.30
2018-06-22T07:54:48.039Z,9.03
2018-06-22T07:56:50.814Z,9.17
2018-06-22T07:58:53.451Z,8.57
2018-06-22T08:00:56.166Z,8.90
2018-06-22T08:02:58.731Z,9.33
2018-06-22T08:05:01.418Z,10.07
2018-06-22T08:07:04.265Z,8.70
2018-06-22T08:09:06.912Z,9.60
2018-06-22T08:11:09.404Z,9.33
2018-06-22T08:13:11.988Z,8.30
2018-06-22T08:15:14.699Z,8.57
2018-06-22T08:17:17.215Z,9.13
2018-06-22T08:19:19.754Z,8.23
2018-06-22T08:21:22.406Z,9.40
2018-06-22T08:23:25.003Z,9.23
2018-06-22T08:25:27.708Z,8.13
2018-06-22T08:27:30.267Z,8.37
2018-06-22T08:29:33.054Z,8.17
2018-06-22T08:31:35.828Z,8.60
2018-06-22T08:33:38.482Z,9.23
2018-06-22T08:35:41.281Z,9.83
2018-06-22T08:37:44.168Z,8.87
2018-06-22T08:39:46.807Z,8.20
2018-06-22T08:41:49.531Z,8.37
2018-06-22T08:43:52.256Z,9.17
2018-06-22T08:45:54.923Z,8.67
2018-06-22T08:47:57.793Z,8.60
2018-06-22T08:50:00.574Z,8.53
2018-06-22T08:52:03.181Z,7.93
2018-06-22T08:54:05.903Z,9.50
2018-06-22T08:56:08.762Z,9.13
2018-06-22T08:58:11.330Z,8.33
2018-06-22T09:00:13.966Z,8.17
2018-06-22T09:02:16.694Z,8.70
2018-06-22T09:04:19.225Z,8.93
2018-06-22T09:06:21.810Z,9.43
2018-06-22T09:08:24.523Z,8.80
2018-06-22T09:10:27.241Z,8.87
2018-06-22T09:12:29.986Z,10.33
2018-06-22T09:14:32.781Z,9.10
2018-06-22T09:16:35.652Z,9.87
2018-06-22T09:18:38.236Z,9.50
2018-06-22T09:20:40.988Z,8.10
2018-06-22T09:22:43.583Z,8.77
2018-06-22T09:24:47.882Z,9.53
2018-06-22T09:26:50.615Z,9.30
2018-06-22T09:28:54.435Z,9.30
2018-06-22T09:30:57.083Z,8.63
2018-06-22T09:32:59.666Z,9.33
2018-06-22T09:35:02.322Z,10.40
2018-06-22T09:37:05.000Z,9.50
2018-06-22T09:39:08.277Z,8.50
2018-06-22T09:41:11.037Z,8.57
2018-06-22T09:43:13.710Z,7.77
2018-06-22T09:45:16.229Z,9.67
2018-06-22T09:47:18.973Z,9.20
2018-06-22T09:49:21.660Z,9.23
2018-06-22T09:51:24.603Z,7.90
2018-06-22T09:53:27.457Z,8.33
2018-06-22T09:55:30.153Z,8.43
2018-06-22T09:57:32.836Z,8.93
2018-06-22T09:59:35.739Z,8.60
2018-06-22T10:01:38.459Z,8.67
2018-06-22T10:03:41.102Z,8.07
2018-06-22T10:05:43.820Z,8.53
2018-06-22T10:07:46.468Z,8.70
2018-06-22T10:09:49.976Z,9.03
2018-06-22T10:11:52.769Z,9.37
2018-06-22T10:13:55.374Z,19.87
2018-06-22T10:15:58.144Z,38.90
2018-06-22T10:18:00.941Z,19.37
2018-06-22T10:20:03.530Z,18.67
2018-06-22T10:22:06.137Z,16.57
2018-06-22T10:24:08.754Z,14.20
2018-06-22T10:26:11.347Z,12.37
2018-06-22T10:28:14.048Z,12.10
2018-06-22T10:30:16.793Z,10.27
2018-06-22T10:32:20.445Z,10.37
2018-06-22T10:34:23.176Z,10.97
2018-06-22T10:39:30.227Z,10.50
2018-06-22T10:41:32.937Z,11.30
2018-06-22T10:43:35.617Z,10.83
2018-06-22T10:45:38.218Z,9.47
2018-06-22T10:47:40.796Z,9.20
2018-06-22T10:49:43.573Z,9.53
2018-06-22T10:51:46.510Z,9.97
2018-06-22T10:53:49.992Z,9.23
2018-06-22T10:55:53.031Z,9.63
2018-06-22T10:57:55.709Z,8.33
2018-06-22T10:59:58.289Z,8.83
2018-06-22T11:02:01.007Z,10.17
2018-06-22T11:04:03.941Z,10.10
2018-06-22T11:06:07.082Z,9.50
2018-06-22T11:08:09.942Z,9.37
2018-06-22T11:10:12.529Z,9.07
2018-06-22T11:12:15.147Z,8.77
2018-06-22T11:14:17.875Z,9.47
2018-06-22T11:16:20.745Z,9.40
2018-06-22T11:18:23.466Z,9.27
2018-06-22T11:20:26.382Z,8.53
2018-06-22T11:22:29.464Z,9.33
2018-06-22T11:24:33.030Z,8.67
2018-06-22T11:26:35.898Z,8.63
2018-06-22T11:28:38.494Z,8.70
2018-06-22T11:30:41.039Z,8.33
2018-06-22T11:32:43.803Z,8.80
2018-06-22T11:34:46.473Z,10.53
2018-06-22T11:36:50.223Z,9.87
2018-06-22T11:38:52.820Z,8.97
2018-06-22T11:40:55.453Z,9.40
2018-06-22T11:42:58.116Z,8.80
2018-06-22T11:45:00.616Z,8.93
2018-06-22T11:47:03.233Z,8.60
2018-06-22T11:49:05.936Z,8.67
2018-06-22T11:51:08.901Z,10.87
2018-06-22T11:53:11.493Z,20.83
2018-06-22T11:55:14.215Z,21.70
2018-06-22T11:57:16.755Z,17.70
2018-06-22T11:59:19.354Z,18.10
2018-06-22T12:01:22.106Z,17.40
2018-06-22T12:03:24.956Z,14.20
2018-06-22T12:05:27.629Z,13.80
2018-06-22T12:09:37.841Z,21.47
2018-06-22T12:11:40.760Z,23.30
2018-06-22T12:13:43.683Z,20.00
2018-06-22T12:15:46.756Z,20.13
2018-06-22T12:17:49.918Z,18.60
2018-06-22T12:19:52.676Z,19.93
2018-06-22T12:21:55.375Z,16.83
2018-06-22T12:23:58.207Z,17.87
2018-06-22T12:26:01.033Z,18.67
2018-06-22T12:28:03.874Z,16.77
2018-06-22T12:30:06.687Z,19.23
2018-06-22T12:32:09.520Z,19.20
2018-06-22T12:34:12.741Z,18.27
2018-06-22T12:36:15.593Z,20.50
2018-06-22T12:38:18.827Z,19.17
2018-06-22T12:40:21.703Z,19.80
2018-06-22T12:42:24.589Z,20.17
2018-06-22T12:44:27.371Z,19.83
2018-06-22T12:46:30.480Z,20.53
2018-06-22T12:48:33.417Z,20.40
2018-06-22T12:50:36.130Z,19.33
2018-06-22T12:52:39.128Z,19.50
2018-06-22T12:54:42.129Z,21.23
2018-06-22T12:56:45.020Z,21.03
2018-06-22T12:58:47.810Z,20.13
2018-06-22T13:00:50.709Z,19.70
2018-06-22T13:02:54.544Z,22.13
2018-06-22T13:04:57.334Z,21.53
2018-06-22T13:07:00.067Z,21.60
2018-06-22T13:09:03.232Z,22.73
2018-06-22T13:11:06.071Z,21.43
2018-06-22T13:13:10.238Z,20.50
2018-06-22T13:15:12.861Z,21.43
2018-06-22T13:17:15.520Z,20.07
2018-06-22T13:19:18.406Z,22.07
2018-06-22T13:21:21.122Z,20.50
2018-06-22T13:23:23.884Z,20.17
2018-06-22T13:25:26.604Z,21.33
2018-06-22T13:27:29.256Z,20.70
2018-06-22T13:36:00.566Z,21.80
2018-06-22T13:38:03.463Z,20.50
2018-06-22T13:40:06.163Z,21.47
2018-06-22T13:42:09.104Z,20.10
2018-06-22T13:44:11.651Z,20.27
2018-06-22T13:46:14.935Z,20.60
2018-06-22T13:48:17.808Z,22.07
2018-06-22T13:50:20.466Z,20.20
2018-06-22T13:52:23.318Z,20.30
2018-06-22T13:54:25.909Z,19.90
2018-06-22T13:56:29.024Z,18.80
2018-06-22T13:58:33.975Z,22.03
2018-06-22T14:00:36.923Z,17.43
2018-06-22T14:07:19.532Z,22.17
2018-06-22T14:09:22.782Z,19.95
2018-06-22T14:11:25.571Z,19.17
2018-06-22T14:13:29.733Z,18.00
2018-06-22T14:15:32.649Z,20.03
2018-06-22T14:17:35.248Z,18.80
2018-06-22T14:19:37.860Z,19.77
2018-06-22T14:21:40.667Z,19.50
2018-06-22T14:27:41.779Z,17.57
2018-06-22T14:29:44.566Z,17.73
2018-06-22T14:31:47.236Z,18.10
2018-06-22T14:33:50.172Z,18.23
2018-06-22T14:35:53.125Z,18.98
2018-06-22T14:37:55.910Z,18.50
2018-06-22T14:39:58.839Z,18.40
2018-06-22T14:42:01.780Z,18.50
2018-06-22T14:44:04.606Z,17.70
2018-06-22T14:46:07.381Z,18.00
2018-06-22T14:48:10.332Z,19.27
2018-06-22T14:50:13.211Z,20.53
2018-06-22T14:52:15.927Z,20.87
2018-06-22T14:54:18.775Z,18.70
2018-06-22T14:56:21.522Z,22.63
2018-06-22T14:58:24.304Z,27.57
2018-06-22T15:00:27.218Z,27.50
2018-06-22T15:02:31.131Z,30.73
2018-06-22T15:04:33.909Z,30.03
2018-06-22T15:06:36.889Z,33.10
2018-06-22T15:08:39.629Z,33.80
2018-06-22T15:10:42.670Z,33.03
2018-06-22T15:12:45.701Z,35.77
2018-06-22T15:14:48.368Z,37.10
2018-06-22T15:16:51.593Z,37.83
2018-06-22T15:18:54.764Z,40.43
2018-06-22T15:20:57.785Z,38.10
2018-06-22T15:25:31.304Z,37.83
2018-06-22T15:27:34.688Z,37.70
2018-06-22T15:29:37.545Z,37.83
2018-06-22T15:31:40.664Z,37.97
2018-06-22T15:33:43.467Z,36.27
2018-06-22T15:35:48.189Z,38.90
2018-06-22T15:37:51.227Z,38.40
2018-06-22T15:39:53.905Z,37.17
2018-06-22T15:41:56.596Z,36.73
2018-06-22T15:43:59.211Z,36.27
2018-06-22T15:46:03.484Z,38.90
2018-06-22T15:48:06.221Z,37.60
2018-06-22T15:50:09.265Z,35.77
2018-06-22T15:52:11.885Z,35.53
2018-06-22T15:54:14.762Z,37.03
2018-06-22T15:56:17.487Z,36.57
2018-06-22T15:58:20.390Z,36.23
2018-06-22T16:00:23.044Z,37.56
2018-06-22T16:02:25.948Z,33.47
2018-06-22T16:04:29.108Z,36.17
2018-06-22T16:06:32.356Z,36.40
2018-06-22T16:08:35.362Z,34.63
2018-06-22T16:10:38.557Z,34.20
2018-06-22T16:12:41.348Z,34.03
2018-06-22T16:14:44.429Z,33.17
2018-06-22T16:16:47.013Z,35.27
2018-06-22T16:18:49.847Z,35.60
2018-06-22T16:20:52.518Z,34.63
2018-06-22T16:22:54.992Z,34.07
2018-06-22T16:24:58.100Z,35.10
2018-06-22T16:27:01.145Z,34.67
2018-06-22T16:29:04.290Z,33.20
2018-06-22T16:31:07.121Z,34.97
2018-06-22T16:33:10.000Z,34.27
2018-06-22T16:35:12.621Z,36.53
2018-06-22T16:37:15.947Z,35.10
2018-06-22T16:39:18.724Z,34.80
2018-06-22T16:41:21.488Z,33.63
2018-06-22T16:43:24.416Z,35.70
2018-06-22T16:45:27.193Z,32.60
2018-06-22T16:47:29.970Z,33.50
2018-06-22T16:49:33.105Z,33.87
2018-06-22T16:51:36.577Z,33.27
2018-06-22T16:53:39.776Z,33.10
2018-06-22T17:18:32.689Z,29.40
2018-06-22T17:20:35.934Z,31.87
2018-06-22T17:22:38.496Z,32.50
2018-06-22T17:24:41.748Z,31.43
2018-06-22T17:26:45.341Z,31.80
2018-06-22T17:28:47.739Z,31.70
2018-06-22T17:30:51.874Z,30.30
2018-06-22T17:32:55.135Z,30.17
2018-06-22T17:34:57.923Z,30.40
2018-06-22T17:37:00.750Z,30.67
2018-06-22T17:39:03.754Z,30.33
2018-06-22T17:41:06.594Z,31.63
2018-06-22T17:43:09.619Z,31.60
2018-06-22T17:45:12.562Z,31.60
2018-06-22T17:47:16.031Z,30.60
2018-06-22T17:49:18.669Z,30.20
2018-06-22T17:51:21.743Z,30.67
2018-06-22T17:53:24.604Z,29.80
2018-06-22T17:55:27.137Z,29.60
2018-06-22T17:57:30.011Z,28.83
2018-06-22T17:59:32.886Z,28.50
2018-06-22T18:01:35.595Z,29.00
2018-06-22T18:03:38.277Z,29.37
2018-06-22T18:05:41.463Z,30.33
2018-06-22T18:07:44.702Z,29.90
2018-06-22T18:09:47.283Z,29.80
2018-06-22T18:11:50.758Z,27.73
2018-06-22T18:13:53.844Z,31.00
2018-06-22T18:15:56.886Z,30.67
2018-06-22T18:18:00.368Z,30.57
2018-06-22T18:20:02.966Z,32.03
2018-06-22T18:22:05.841Z,30.73
2018-06-22T18:24:08.796Z,31.10
2018-06-22T18:26:11.752Z,30.73
2018-06-22T18:28:14.473Z,31.13
2018-06-22T18:30:17.158Z,31.73
2018-06-22T18:32:20.324Z,33.80
2018-06-22T18:34:22.940Z,31.27
2018-06-22T18:36:25.855Z,32.27
2018-06-22T18:38:28.865Z,31.57
2018-06-22T18:40:31.535Z,33.20
2018-06-22T18:42:34.931Z,35.30
2018-06-22T18:44:37.535Z,32.17
2018-06-22T18:46:40.793Z,33.27
2018-06-22T18:48:43.682Z,30.97
2018-06-22T18:50:46.338Z,34.43
2018-06-22T18:52:51.752Z,33.97
2018-06-22T18:54:54.521Z,32.40
2018-06-22T18:56:57.318Z,34.07
2018-06-22T18:59:00.828Z,33.60
2018-06-22T19:01:03.366Z,34.67
2018-06-22T19:03:06.172Z,32.30
2018-06-22T19:05:08.937Z,34.13
2018-06-22T19:07:11.413Z,31.13
2018-06-22T19:09:13.931Z,32.67
2018-06-22T19:11:16.746Z,31.87
2018-06-22T19:13:19.533Z,29.73
2018-06-22T19:15:22.642Z,30.20
2018-06-22T19:17:25.604Z,31.07
2018-06-22T19:19:28.667Z,30.93
2018-06-22T19:21:31.959Z,29.40
2018-06-22T19:23:35.102Z,27.70
2018-06-22T19:25:37.711Z,28.20
2018-06-22T19:27:40.303Z,27.13
2018-06-22T19:29:43.029Z,27.53
2018-06-22T19:31:45.887Z,28.53
2018-06-22T19:33:48.752Z,27.57
2018-06-22T19:35:51.717Z,26.27
2018-06-22T19:37:55.478Z,26.77
2018-06-22T19:39:58.818Z,25.77
2018-06-22T19:42:01.497Z,25.00
2018-06-22T19:44:04.414Z,27.27
2018-06-22T19:46:07.426Z,26.23
2018-06-22T19:48:10.633Z,25.70
2018-06-22T19:50:13.476Z,26.30
2018-06-22T19:52:16.306Z,24.43
2018-06-22T19:54:19.012Z,25.57
2018-06-22T19:56:22.261Z,25.60
2018-06-22T19:58:25.072Z,24.90
2018-06-22T20:00:27.660Z,24.43
2018-06-22T20:02:31.294Z,23.57
2018-06-22T20:04:34.141Z,23.20
2018-06-22T20:06:37.370Z,22.67
2018-06-22T20:08:40.411Z,22.10
2018-06-22T20:10:43.112Z,23.90
2018-06-22T20:12:45.853Z,23.17
2018-06-22T20:14:48.632Z,22.30
2018-06-22T20:16:51.529Z,22.10
2018-06-22T20:18:54.293Z,20.50
2018-06-22T20:20:57.060Z,21.20
2018-06-22T20:23:00.275Z,20.57
2018-06-22T20:25:02.953Z,21.10
2018-06-22T20:27:06.030Z,20.02
2018-06-22T20:29:08.888Z,21.97
2018-06-22T20:31:11.714Z,20.10
2018-06-22T20:33:14.810Z,22.90
2018-06-22T20:35:17.651Z,22.63
2018-06-22T20:37:20.771Z,22.20
2018-06-22T20:39:23.903Z,20.90
2018-06-22T20:41:26.720Z,21.97
2018-06-22T20:43:29.532Z,22.50
2018-06-22T20:45:32.290Z,22.00
2018-06-22T20:47:35.288Z,21.33
2018-06-22T20:49:38.135Z,21.83
2018-06-22T20:51:40.807Z,21.25
2018-06-22T20:53:43.582Z,21.33
2018-06-22T20:55:46.878Z,22.03
2018-06-22T20:57:49.583Z,20.70
2018-06-22T20:59:52.731Z,22.40
2018-06-22T21:01:55.639Z,19.93
2018-06-22T21:03:58.727Z,20.03
2018-06-22T21:06:01.720Z,20.23
2018-06-22T21:08:04.847Z,20.43
2018-06-22T21:10:07.805Z,20.33
2018-06-22T21:12:10.966Z,20.30
2018-06-22T21:14:14.078Z,20.10
2018-06-22T21:16:17.044Z,18.90
2018-06-22T21:18:19.802Z,19.23
2018-06-22T21:20:22.885Z,17.97
2018-06-22T21:22:25.971Z,17.87
2018-06-22T21:24:29.210Z,16.53
2018-06-22T21:26:31.832Z,17.10
2018-06-22T21:28:35.592Z,16.85
2018-06-22T21:30:38.950Z,16.87
2018-06-22T21:32:42.152Z,17.27
2018-06-22T21:34:45.924Z,17.07
2018-06-22T21:36:50.248Z,17.20
2018-06-22T21:38:53.431Z,16.23
2018-06-22T21:40:57.753Z,17.00
2018-06-22T21:43:00.658Z,16.37
2018-06-22T21:45:04.218Z,17.03
2018-06-22T21:47:07.059Z,15.83
2018-06-22T21:49:10.004Z,16.03
2018-06-22T21:51:13.409Z,17.37
2018-06-22T21:53:16.386Z,16.70
2018-06-22T21:55:19.765Z,15.85
2018-06-22T21:57:23.033Z,15.20
2018-06-22T21:59:26.218Z,16.70
2018-06-22T22:01:29.429Z,16.70
2018-06-22T22:03:32.423Z,17.33
2018-06-22T22:05:35.215Z,15.73
2018-06-22T22:07:38.466Z,17.03
2018-06-22T22:09:41.563Z,16.00
2018-06-22T22:11:45.051Z,16.60
2018-06-22T22:13:48.858Z,16.50
2018-06-22T22:15:52.156Z,16.37
2018-06-22T22:17:56.049Z,15.70
2018-06-22T22:19:59.447Z,16.03
2018-06-22T22:22:02.744Z,16.23
2018-06-22T22:24:06.216Z,15.80
2018-06-22T22:26:10.845Z,16.77
2018-06-22T22:28:14.273Z,15.13
2018-06-22T22:30:17.835Z,15.83
2018-06-22T22:32:21.029Z,14.80
2018-06-22T22:34:24.482Z,15.10
2018-06-22T22:36:28.015Z,15.13
2018-06-22T22:38:31.425Z,15.63
2018-06-22T22:40:34.530Z,15.83
2018-06-22T22:42:37.569Z,15.50
2018-06-22T22:44:41.297Z,16.77
2018-06-22T22:46:44.597Z,16.00
2018-06-22T22:48:48.465Z,14.73
2018-06-22T22:50:51.867Z,16.30
2018-06-22T22:52:55.104Z,15.50
2018-06-22T22:54:58.858Z,14.50
2018-06-22T22:57:02.190Z,15.97
2018-06-22T22:59:05.228Z,16.47
2018-06-22T23:01:08.649Z,15.70
2018-06-22T23:03:12.017Z,16.50
2018-06-22T23:05:15.630Z,16.90
2018-06-22T23:07:18.919Z,17.77
2018-06-22T23:11:56.130Z,17.20
2018-06-22T23:13:59.960Z,17.43
2018-06-22T23:16:03.510Z,16.30
2018-06-22T23:18:08.388Z,15.90
2018-06-22T23:20:11.639Z,16.20
2018-06-22T23:22:14.910Z,18.07
2018-06-22T23:24:18.407Z,18.40
2018-06-22T23:26:22.013Z,19.13
2018-06-22T23:28:25.403Z,16.60
2018-06-22T23:30:28.616Z,17.53
2018-06-22T23:32:31.881Z,17.70
2018-06-22T23:34:35.318Z,16.27
2018-06-22T23:36:38.587Z,16.57
2018-06-22T23:38:42.187Z,16.73
2018-06-22T23:40:45.448Z,15.80
2018-06-22T23:42:49.231Z,15.90
2018-06-22T23:44:52.595Z,17.33
2018-06-22T23:46:55.764Z,18.60
2018-06-22T23:48:59.666Z,17.83
2018-06-22T23:51:03.738Z,16.20
2018-06-22T23:53:06.965Z,16.07
2018-06-22T23:55:10.877Z,16.17
2018-06-22T23:57:15.273Z,16.50
2018-06-22T23:59:18.871Z,15.93
